createdAt,value
2023-03-07T00:01:09.581Z,14.75
2023-03-07T00:03:39.079Z,16.20
2023-03-07T00:06:11.693Z,14.98
2023-03-07T00:08:39.959Z,14.77
2023-03-07T00:11:09.233Z,14.02
2023-03-07T00:13:37.996Z,12.95
2023-03-07T00:16:10.952Z,14.00
2023-03-07T00:18:38.230Z,13.55
2023-03-07T00:21:08.143Z,11.95
2023-03-07T00:23:37.117Z,11.88
2023-03-07T00:26:09.513Z,12.23
2023-03-07T00:28:38.854Z,11.27
2023-03-07T00:31:09.122Z,11.57
2023-03-07T00:33:37.942Z,10.70
2023-03-07T00:36:16.895Z,10.63
2023-03-07T00:38:46.166Z,10.23
2023-03-07T00:41:19.666Z,9.80
2023-03-07T00:43:47.310Z,8.02
2023-03-07T00:46:16.792Z,9.60
2023-03-07T00:48:44.381Z,9.25
2023-03-07T00:51:13.823Z,8.80
2023-03-07T00:53:41.091Z,8.48
2023-03-07T00:56:19.152Z,9.38
2023-03-07T00:58:47.359Z,7.35
2023-03-07T01:01:18.131Z,7.75
2023-03-07T01:03:46.324Z,6.65
2023-03-07T01:06:15.631Z,6.97
2023-03-07T01:08:42.438Z,7.03
2023-03-07T01:11:10.642Z,6.75
2023-03-07T01:13:37.884Z,7.10
2023-03-07T01:16:21.495Z,6.40
2023-03-07T01:18:54.105Z,4.82
2023-03-07T01:21:25.174Z,6.30
2023-03-07T01:23:55.280Z,6.07
2023-03-07T01:26:28.358Z,5.57
2023-03-07T01:28:58.857Z,6.25
2023-03-07T01:31:27.323Z,4.80
2023-03-07T01:33:54.597Z,4.50
2023-03-07T01:36:25.394Z,4.22
2023-03-07T01:38:55.173Z,3.50
2023-03-07T01:41:22.793Z,3.38
2023-03-07T01:43:49.981Z,3.78
2023-03-07T01:46:22.232Z,3.58
2023-03-07T01:48:56.395Z,3.22
2023-03-07T01:51:24.688Z,3.45
2023-03-07T01:53:53.538Z,3.40
2023-03-07T01:56:21.887Z,3.28
2023-03-07T01:58:49.462Z,3.30
2023-03-07T02:01:17.633Z,3.22
2023-03-07T02:04:06.357Z,3.03
2023-03-07T02:06:36.216Z,3.75
2023-03-07T02:09:05.769Z,3.45
2023-03-07T02:11:32.868Z,3.25
2023-03-07T02:13:59.716Z,3.33
2023-03-07T02:16:26.672Z,3.88
2023-03-07T02:18:53.556Z,3.72
2023-03-07T02:21:39.266Z,3.50
2023-03-07T02:24:22.716Z,4.03
2023-03-07T02:26:55.944Z,3.90
2023-03-07T02:29:22.936Z,3.38
2023-03-07T02:31:49.748Z,3.47
2023-03-07T02:34:29.580Z,3.63
2023-03-07T02:37:05.213Z,3.70
2023-03-07T02:39:32.566Z,4.32
2023-03-07T02:42:04.577Z,4.53
2023-03-07T02:44:31.438Z,4.32
2023-03-07T02:46:58.516Z,4.68
2023-03-07T02:49:25.356Z,4.25
2023-03-07T02:51:57.543Z,4.82
2023-03-07T02:54:25.278Z,5.15
2023-03-07T02:56:52.401Z,5.45
2023-03-07T02:59:19.587Z,4.88
2023-03-07T03:01:46.968Z,5.22
2023-03-07T03:04:13.808Z,5.22
2023-03-07T03:06:40.636Z,6.15
2023-03-07T03:09:07.675Z,5.60
2023-03-07T03:11:34.411Z,5.53
2023-03-07T03:14:01.183Z,5.95
2023-03-07T03:16:27.977Z,5.60
2023-03-07T03:18:54.814Z,5.75
2023-03-07T03:21:21.736Z,5.95
2023-03-07T03:23:48.523Z,6.38
2023-03-07T03:26:15.329Z,6.10
2023-03-07T03:28:42.123Z,6.25
2023-03-07T03:31:11.605Z,5.95
2023-03-07T03:33:39.337Z,5.93
2023-03-07T03:36:15.052Z,6.50
2023-03-07T03:38:42.166Z,6.63
2023-03-07T03:41:12.451Z,6.32
2023-03-07T03:43:39.335Z,6.75
2023-03-07T03:46:06.884Z,6.50
2023-03-07T03:48:33.673Z,6.45
2023-03-07T03:51:12.739Z,7.45
2023-03-07T03:53:40.263Z,6.60
2023-03-07T03:56:11.918Z,7.35
2023-03-07T03:58:39.499Z,7.38
2023-03-07T04:01:08.470Z,7.60
2023-03-07T04:03:42.585Z,7.97
2023-03-07T04:08:39.706Z,9.00
2023-03-07T04:11:07.024Z,8.48
2023-03-07T04:13:35.036Z,8.13
2023-03-07T04:16:02.208Z,8.85
2023-03-07T04:18:29.222Z,8.80
2023-03-07T04:20:55.994Z,9.02
2023-03-07T04:23:24.469Z,8.93
2023-03-07T04:25:55.708Z,8.80
2023-03-07T04:28:24.898Z,9.55
2023-03-07T04:30:56.437Z,8.98
2023-03-07T04:33:24.216Z,10.95
2023-03-07T04:35:51.293Z,9.98
2023-03-07T04:38:18.248Z,9.57
2023-03-07T04:40:45.030Z,10.45
2023-03-07T04:43:12.006Z,10.45
2023-03-07T04:45:39.550Z,11.20
2023-03-07T04:48:06.906Z,11.10
2023-03-07T04:50:33.725Z,12.07
2023-03-07T04:53:00.507Z,11.90
2023-03-07T04:55:27.240Z,10.88
2023-03-07T04:57:54.424Z,10.95
2023-03-07T05:00:21.372Z,11.52
2023-03-07T05:02:48.818Z,11.75
2023-03-07T05:05:16.721Z,11.65
2023-03-07T05:07:44.223Z,11.30
2023-03-07T05:10:12.414Z,11.60
2023-03-07T05:12:39.271Z,11.45
2023-03-07T05:15:06.908Z,11.52
2023-03-07T05:17:33.938Z,12.07
2023-03-07T05:20:01.515Z,13.00
2023-03-07T05:22:28.354Z,11.55
2023-03-07T05:24:55.100Z,11.52
2023-03-07T05:27:21.763Z,11.65
2023-03-07T05:29:48.542Z,11.77
2023-03-07T05:32:15.715Z,12.73
2023-03-07T05:34:48.212Z,12.32
2023-03-07T05:37:15.215Z,11.98
2023-03-07T05:39:41.986Z,11.75
2023-03-07T05:42:08.887Z,11.90
2023-03-07T05:44:35.738Z,10.32
2023-03-07T05:47:03.717Z,12.43
2023-03-07T05:49:30.486Z,11.60
2023-03-07T05:51:57.218Z,10.98
2023-03-07T05:54:25.089Z,11.30
2023-03-07T05:56:51.847Z,10.90
2023-03-07T05:59:21.416Z,10.48
2023-03-07T06:01:48.320Z,11.90
2023-03-07T06:04:16.257Z,11.48
2023-03-07T06:06:42.953Z,10.55
2023-03-07T06:09:12.856Z,10.90
2023-03-07T06:11:40.634Z,10.25
2023-03-07T06:14:07.449Z,10.57
2023-03-07T06:16:34.281Z,9.98
2023-03-07T06:19:01.088Z,10.82
2023-03-07T06:21:27.794Z,11.10
2023-03-07T06:23:56.162Z,10.65
2023-03-07T06:26:25.276Z,11.02
2023-03-07T06:28:53.342Z,10.63
2023-03-07T06:31:31.696Z,10.57
2023-03-07T06:33:59.964Z,10.00
2023-03-07T06:36:26.786Z,10.90
2023-03-07T06:38:53.578Z,10.05
2023-03-07T06:41:20.448Z,10.82
2023-03-07T06:43:50.814Z,10.05
2023-03-07T06:46:19.208Z,10.40
2023-03-07T06:48:45.998Z,10.07
2023-03-07T06:51:12.813Z,10.43
2023-03-07T06:53:39.558Z,11.32
2023-03-07T06:56:06.716Z,9.85
2023-03-07T06:58:33.551Z,9.65
2023-03-07T07:01:01.955Z,10.48
2023-03-07T07:03:29.369Z,10.10
2023-03-07T07:06:01.022Z,11.10
2023-03-07T07:08:29.155Z,9.90
2023-03-07T07:10:58.318Z,10.57
2023-03-07T07:13:25.144Z,11.57
2023-03-07T07:15:51.915Z,10.75
2023-03-07T07:18:18.633Z,10.52
2023-03-07T07:20:45.390Z,10.13
2023-03-07T07:23:12.368Z,10.40
2023-03-07T07:25:39.298Z,10.05
2023-03-07T07:28:06.052Z,10.43
2023-03-07T07:30:32.771Z,10.90
2023-03-07T07:33:00.071Z,9.82
2023-03-07T07:35:26.939Z,9.90
2023-03-07T07:38:07.803Z,9.80
2023-03-07T07:40:34.554Z,11.05
2023-03-07T07:43:02.719Z,11.20
2023-03-07T07:45:29.502Z,9.40
2023-03-07T07:47:56.626Z,10.85
2023-03-07T07:50:27.671Z,10.77
2023-03-07T07:52:57.378Z,10.77
2023-03-07T07:55:25.147Z,9.35
2023-03-07T07:57:52.488Z,10.13
2023-03-07T08:00:21.582Z,10.82
2023-03-07T08:02:52.484Z,9.95
2023-03-07T08:05:20.822Z,10.77
2023-03-07T08:07:48.497Z,10.05
2023-03-07T08:10:16.127Z,10.38
2023-03-07T08:12:44.221Z,9.32
2023-03-07T08:15:12.250Z,9.30
2023-03-07T08:17:39.342Z,10.07
2023-03-07T08:20:10.069Z,10.25
2023-03-07T08:22:37.523Z,9.93
2023-03-07T08:25:05.876Z,9.38
2023-03-07T08:27:33.118Z,9.77
2023-03-07T08:30:01.387Z,9.05
2023-03-07T08:32:29.515Z,9.18
2023-03-07T08:34:57.557Z,8.60
2023-03-07T08:37:24.805Z,9.77
2023-03-07T08:39:51.964Z,8.25
2023-03-07T08:42:18.782Z,8.68
2023-03-07T08:44:45.536Z,7.90
2023-03-07T08:47:13.467Z,8.43
2023-03-07T08:49:40.973Z,8.50
2023-03-07T08:52:07.703Z,8.00
2023-03-07T08:54:34.811Z,8.40
2023-03-07T08:57:01.538Z,7.35
2023-03-07T08:59:28.615Z,8.93
2023-03-07T09:01:56.987Z,7.65
2023-03-07T09:04:24.240Z,8.18
2023-03-07T09:06:51.398Z,8.02
2023-03-07T09:09:18.162Z,8.30
2023-03-07T09:11:49.659Z,8.45
2023-03-07T09:14:16.449Z,8.35
2023-03-07T09:16:43.235Z,7.63
2023-03-07T09:19:10.296Z,8.10
2023-03-07T09:21:37.854Z,8.25
2023-03-07T09:24:06.050Z,8.02
2023-03-07T09:26:32.855Z,7.70
2023-03-07T09:28:59.811Z,7.70
2023-03-07T09:31:26.848Z,7.85
2023-03-07T09:33:56.702Z,6.72
2023-03-07T09:36:23.485Z,7.15
2023-03-07T09:38:51.274Z,7.82
2023-03-07T09:41:48.899Z,7.13
2023-03-07T09:44:24.725Z,7.35
2023-03-07T09:47:31.960Z,7.38
2023-03-07T09:50:00.620Z,6.72
2023-03-07T09:52:31.592Z,6.50
2023-03-07T09:55:13.615Z,5.95
2023-03-07T09:57:51.581Z,6.30
2023-03-07T10:00:40.407Z,6.38
2023-03-07T10:03:37.752Z,5.60
2023-03-07T10:06:19.876Z,5.95
2023-03-07T10:08:46.685Z,6.18
2023-03-07T10:11:34.615Z,5.65
2023-03-07T10:14:09.044Z,9.13
2023-03-07T10:16:54.369Z,5.20
2023-03-07T10:19:36.795Z,5.30
2023-03-07T10:22:27.228Z,5.03
2023-03-07T10:25:01.060Z,4.32
2023-03-07T10:27:30.700Z,4.82
2023-03-07T10:29:59.782Z,4.55
2023-03-07T10:32:39.455Z,5.32
2023-03-07T10:35:13.265Z,4.90
2023-03-07T10:37:56.712Z,4.97
2023-03-07T10:40:29.329Z,4.40
2023-03-07T10:42:58.252Z,4.75
2023-03-07T10:45:29.797Z,4.95
2023-03-07T10:48:05.156Z,4.68
2023-03-07T10:51:01.241Z,4.97
2023-03-07T10:53:34.936Z,4.80
2023-03-07T10:56:13.644Z,4.35
2023-03-07T10:58:58.998Z,4.55
2023-03-07T11:01:28.774Z,4.20
2023-03-07T11:04:02.864Z,4.65
2023-03-07T11:09:09.481Z,4.40
2023-03-07T11:11:38.265Z,4.28
2023-03-07T11:14:14.708Z,4.75
2023-03-07T11:16:50.043Z,4.32
2023-03-07T11:19:55.706Z,4.53
2023-03-07T11:22:29.252Z,4.43
2023-03-07T11:25:15.967Z,4.28
2023-03-07T11:27:45.472Z,4.65
2023-03-07T11:30:25.813Z,3.70
2023-03-07T11:33:00.690Z,3.95
2023-03-07T11:35:50.833Z,3.95
2023-03-07T11:38:36.717Z,3.58
2023-03-07T11:41:10.486Z,3.85
2023-03-07T11:44:00.205Z,4.30
2023-03-07T11:47:05.158Z,4.20
2023-03-07T11:49:40.436Z,3.65
2023-03-07T11:52:36.847Z,4.07
2023-03-07T11:55:24.978Z,4.30
2023-03-07T11:58:22.127Z,4.18
2023-03-07T12:00:48.781Z,4.90
2023-03-07T12:03:24.950Z,4.65
2023-03-07T12:06:28.958Z,4.70
2023-03-07T12:09:20.630Z,4.57
2023-03-07T12:12:22.879Z,4.68
2023-03-07T12:15:23.208Z,4.80
2023-03-07T12:18:05.232Z,5.03
2023-03-07T12:20:56.032Z,5.50
2023-03-07T12:23:39.222Z,5.20
2023-03-07T12:26:26.276Z,5.45
2023-03-07T12:29:01.948Z,5.97
2023-03-07T12:31:36.185Z,5.55
2023-03-07T12:34:29.845Z,5.53
2023-03-07T12:37:02.811Z,5.97
2023-03-07T12:39:39.628Z,5.47
2023-03-07T12:42:24.546Z,5.40
2023-03-07T12:45:08.632Z,5.63
2023-03-07T12:47:53.881Z,5.63
2023-03-07T12:50:30.991Z,5.78
2023-03-07T12:53:18.822Z,6.50
2023-03-07T12:55:49.790Z,6.15
2023-03-07T12:58:42.011Z,5.75
2023-03-07T13:01:27.520Z,6.35
2023-03-07T13:04:06.325Z,5.68
2023-03-07T13:06:34.306Z,5.45
2023-03-07T13:09:04.090Z,5.60
2023-03-07T13:11:37.996Z,5.93
2023-03-07T13:14:05.754Z,5.75
2023-03-07T13:16:42.528Z,5.30
2023-03-07T13:19:30.981Z,5.88
2023-03-07T13:21:59.592Z,5.22
2023-03-07T13:24:42.444Z,5.60
2023-03-07T13:27:17.652Z,5.68
2023-03-07T13:30:03.360Z,5.57
2023-03-07T13:32:51.860Z,5.13
2023-03-07T13:35:28.220Z,5.20
2023-03-07T13:38:29.089Z,5.03
2023-03-07T13:40:58.492Z,4.70
2023-03-07T13:43:27.872Z,5.05
2023-03-07T13:46:25.384Z,5.13
2023-03-07T13:48:55.145Z,4.90
2023-03-07T13:51:22.241Z,4.85
2023-03-07T13:54:10.306Z,4.82
2023-03-07T13:56:42.674Z,4.90
2023-03-07T13:59:28.213Z,4.75
2023-03-07T14:02:10.680Z,5.25
2023-03-07T14:04:54.603Z,5.43
2023-03-07T14:07:21.468Z,5.28
2023-03-07T14:09:50.816Z,4.82
2023-03-07T14:12:44.482Z,5.10
2023-03-07T14:15:27.680Z,5.05
2023-03-07T14:18:20.688Z,5.20
2023-03-07T14:21:08.048Z,5.15
2023-03-07T14:23:37.801Z,5.30
2023-03-07T14:26:34.927Z,5.32
2023-03-07T14:29:12.932Z,5.78
2023-03-07T14:31:42.900Z,6.10
2023-03-07T14:34:17.718Z,6.13
2023-03-07T14:36:46.232Z,5.55
2023-03-07T14:39:15.034Z,5.68
2023-03-07T14:41:47.769Z,5.75
2023-03-07T14:44:26.348Z,5.35
2023-03-07T14:47:15.342Z,6.00
2023-03-07T14:50:00.145Z,6.43
2023-03-07T14:52:31.304Z,6.32
2023-03-07T14:55:03.809Z,5.90
2023-03-07T14:57:46.139Z,6.53
2023-03-07T15:00:32.688Z,6.30
2023-03-07T15:03:08.530Z,5.53
2023-03-07T15:05:45.069Z,5.72
2023-03-07T15:08:41.335Z,5.75
2023-03-07T15:11:32.921Z,5.90
2023-03-07T15:14:06.569Z,6.40
2023-03-07T15:16:38.082Z,5.95
2023-03-07T15:19:32.929Z,6.30
2023-03-07T15:24:38.391Z,4.07
2023-03-07T15:27:10.466Z,3.80
2023-03-07T15:29:39.480Z,3.45
2023-03-07T15:32:26.792Z,2.60
2023-03-07T15:35:16.842Z,2.65
2023-03-07T15:37:58.389Z,2.70
2023-03-07T15:40:30.721Z,2.80
2023-03-07T15:42:59.640Z,2.45
2023-03-07T15:45:38.556Z,2.30
2023-03-07T15:48:43.458Z,2.22
2023-03-07T15:51:22.992Z,1.85
2023-03-07T15:53:59.863Z,1.50
2023-03-07T15:56:33.373Z,1.50
2023-03-07T15:59:10.061Z,1.75
2023-03-07T16:01:39.698Z,1.50
2023-03-07T16:04:27.604Z,1.10
2023-03-07T16:06:54.330Z,1.75
2023-03-07T16:09:21.192Z,2.20
2023-03-07T16:11:49.341Z,1.83
2023-03-07T16:14:16.034Z,2.70
2023-03-07T16:16:47.206Z,3.13
2023-03-07T16:19:14.549Z,3.70
2023-03-07T16:21:41.375Z,4.93
2023-03-07T16:24:10.508Z,4.18
2023-03-07T16:26:39.736Z,3.17
2023-03-07T16:29:08.865Z,3.13
2023-03-07T16:31:35.755Z,4.32
2023-03-07T16:34:02.630Z,3.80
2023-03-07T16:36:29.568Z,4.47
2023-03-07T16:38:56.350Z,3.10
2023-03-07T16:41:24.134Z,3.38
2023-03-07T16:43:56.102Z,3.00
2023-03-07T16:46:24.387Z,3.25
2023-03-07T16:48:51.296Z,3.50
2023-03-07T16:51:21.122Z,5.82
2023-03-07T16:53:52.050Z,7.93
2023-03-07T16:56:26.632Z,9.95
2023-03-07T16:58:57.402Z,8.45
2023-03-07T17:01:24.234Z,7.72
2023-03-07T17:03:51.113Z,6.47
2023-03-07T17:06:19.128Z,7.18
2023-03-07T17:08:47.124Z,8.40
2023-03-07T17:11:25.703Z,8.73
2023-03-07T17:13:59.568Z,8.57
2023-03-07T17:16:27.291Z,10.95
2023-03-07T17:18:55.459Z,9.77
2023-03-07T17:21:22.923Z,9.25
2023-03-07T17:23:50.540Z,7.65
2023-03-07T17:26:40.601Z,7.47
2023-03-07T17:29:29.074Z,8.43
2023-03-07T17:31:57.258Z,9.20
2023-03-07T17:34:26.993Z,7.20
2023-03-07T17:36:56.082Z,4.25
2023-03-07T17:39:24.338Z,4.68
2023-03-07T17:41:51.138Z,11.23
2023-03-07T17:44:18.250Z,15.65
2023-03-07T17:46:45.149Z,15.30
2023-03-07T17:49:12.097Z,13.43
2023-03-07T17:51:41.699Z,12.10
2023-03-07T17:54:08.492Z,10.50
2023-03-07T17:56:36.437Z,10.50
2023-03-07T17:59:04.321Z,9.63
2023-03-07T18:01:33.853Z,17.65
2023-03-07T18:04:02.147Z,8.25
2023-03-07T18:06:29.002Z,5.30
2023-03-07T18:08:57.445Z,8.75
2023-03-07T18:11:24.644Z,11.13
2023-03-07T18:13:51.543Z,9.45
2023-03-07T18:16:20.512Z,8.73
2023-03-07T18:18:58.901Z,5.60
2023-03-07T18:21:29.685Z,4.38
2023-03-07T18:23:57.136Z,5.13
2023-03-07T18:26:23.985Z,5.28
2023-03-07T18:28:53.219Z,5.57
2023-03-07T18:31:25.830Z,4.90
2023-03-07T18:33:54.649Z,4.95
2023-03-07T18:36:25.535Z,5.10
2023-03-07T18:38:52.647Z,4.90
2023-03-07T18:41:22.116Z,4.50
2023-03-07T18:43:49.263Z,5.65
2023-03-07T18:46:19.092Z,5.88
2023-03-07T18:48:47.418Z,6.47
2023-03-07T18:51:24.377Z,5.97
2023-03-07T18:53:58.253Z,6.38
2023-03-07T18:56:25.874Z,7.15
2023-03-07T18:58:56.839Z,6.78
2023-03-07T19:01:26.674Z,6.43
2023-03-07T19:03:55.466Z,6.57
2023-03-07T19:06:25.570Z,7.60
2023-03-07T19:08:53.042Z,7.50
2023-03-07T19:11:20.303Z,7.05
2023-03-07T19:13:47.148Z,6.43
2023-03-07T19:16:20.856Z,6.75
2023-03-07T19:18:48.708Z,5.95
2023-03-07T19:21:22.324Z,5.55
2023-03-07T19:23:52.040Z,6.03
2023-03-07T19:26:20.916Z,5.90
2023-03-07T19:28:53.343Z,5.63
2023-03-07T19:31:22.586Z,5.35
2023-03-07T19:33:52.214Z,5.47
2023-03-07T19:36:27.610Z,4.07
2023-03-07T19:38:56.431Z,4.45
2023-03-07T19:41:25.249Z,9.88
2023-03-07T19:43:52.671Z,4.80
2023-03-07T19:46:20.258Z,4.40
2023-03-07T19:48:48.130Z,3.80
2023-03-07T19:51:20.005Z,4.20
2023-03-07T19:53:47.570Z,3.90
2023-03-07T19:56:32.794Z,4.40
2023-03-07T19:59:01.307Z,5.05
2023-03-07T20:01:29.371Z,4.78
2023-03-07T20:03:56.904Z,4.25
2023-03-07T20:06:26.552Z,4.22
2023-03-07T20:08:54.599Z,4.38
2023-03-07T20:11:26.740Z,5.15
2023-03-07T20:13:56.758Z,5.03
2023-03-07T20:16:24.704Z,5.72
2023-03-07T20:18:53.022Z,5.55
2023-03-07T20:21:21.898Z,6.32
2023-03-07T20:23:50.735Z,6.45
2023-03-07T20:26:25.121Z,6.53
2023-03-07T20:28:53.612Z,8.02
2023-03-07T20:31:22.196Z,9.13
2023-03-07T20:33:50.127Z,8.82
2023-03-07T20:36:22.703Z,10.07
2023-03-07T20:38:55.178Z,9.60
2023-03-07T20:41:27.516Z,8.98
2023-03-07T20:43:57.001Z,9.05
2023-03-07T20:46:25.208Z,9.00
2023-03-07T20:48:55.024Z,8.85
2023-03-07T20:51:24.161Z,9.63
2023-03-07T20:53:57.558Z,9.30
2023-03-07T20:56:26.408Z,7.05
2023-03-07T20:58:55.655Z,9.45
2023-03-07T21:01:23.344Z,9.35
2023-03-07T21:03:51.750Z,9.70
2023-03-07T21:06:21.145Z,9.40
2023-03-07T21:08:48.799Z,10.25
2023-03-07T21:11:19.070Z,10.50
2023-03-07T21:13:48.077Z,10.38
2023-03-07T21:16:18.295Z,10.68
2023-03-07T21:18:45.821Z,10.98
2023-03-07T21:21:22.816Z,10.43
2023-03-07T21:23:49.863Z,9.73
2023-03-07T21:26:30.646Z,10.48
2023-03-07T21:28:58.442Z,10.15
2023-03-07T21:31:33.040Z,11.65
2023-03-07T21:34:02.879Z,11.55
2023-03-07T21:36:31.543Z,10.43
2023-03-07T21:38:59.477Z,10.90
2023-03-07T21:41:26.896Z,11.45
2023-03-07T21:43:54.912Z,10.82
2023-03-07T21:46:21.858Z,10.82
2023-03-07T21:48:48.846Z,11.27
2023-03-07T21:51:16.053Z,10.95
2023-03-07T21:53:42.825Z,11.00
2023-03-07T21:56:12.171Z,11.23
2023-03-07T21:58:40.071Z,10.80
2023-03-07T22:01:20.334Z,10.77
2023-03-07T22:03:53.920Z,10.02
2023-03-07T22:06:25.108Z,8.43
2023-03-07T22:09:13.653Z,9.77
2023-03-07T22:11:40.370Z,8.23
2023-03-07T22:14:08.153Z,8.95
2023-03-07T22:16:35.176Z,7.60
2023-03-07T22:19:01.923Z,8.43
2023-03-07T22:21:29.043Z,8.98
2023-03-07T22:23:58.203Z,8.15
2023-03-07T22:26:25.904Z,8.52
2023-03-07T22:28:53.219Z,7.80
2023-03-07T22:31:23.298Z,7.93
2023-03-07T22:33:50.253Z,7.53
2023-03-07T22:36:17.331Z,7.60
2023-03-07T22:38:44.400Z,7.13
2023-03-07T22:41:15.104Z,7.25
2023-03-07T22:43:42.402Z,7.05
2023-03-07T22:46:10.220Z,7.18
2023-03-07T22:48:37.591Z,7.25
2023-03-07T22:51:04.879Z,7.07
2023-03-07T22:53:32.792Z,7.90
2023-03-07T22:56:00.980Z,7.90
2023-03-07T22:58:28.934Z,7.63
2023-03-07T23:00:58.193Z,8.40
2023-03-07T23:03:25.210Z,7.47
2023-03-07T23:05:52.401Z,8.43
2023-03-07T23:08:20.433Z,7.30
2023-03-07T23:10:47.258Z,6.82
2023-03-07T23:13:16.080Z,11.02
2023-03-07T23:15:45.341Z,7.90
2023-03-07T23:18:12.303Z,6.68
2023-03-07T23:20:42.100Z,7.47
2023-03-07T23:23:09.145Z,6.57
2023-03-07T23:25:41.269Z,6.07
2023-03-07T23:28:09.411Z,6.78
2023-03-07T23:30:39.806Z,5.47
2023-03-07T23:33:06.983Z,5.10
2023-03-07T23:35:34.481Z,5.53
2023-03-07T23:38:01.752Z,5.47
2023-03-07T23:40:28.522Z,5.30
2023-03-07T23:42:55.697Z,5.03
2023-03-07T23:45:22.580Z,5.15
2023-03-07T23:47:49.802Z,5.82
2023-03-07T23:50:16.821Z,5.28
2023-03-07T23:52:44.017Z,4.65
2023-03-07T23:55:11.083Z,4.80
2023-03-07T23:57:39.130Z,4.88
